createdAt,value
2023-03-26T00:00:33.020Z,96313.47
2023-03-26T00:02:39.986Z,96317.69
2023-03-26T00:04:46.774Z,96314.28
2023-03-26T00:06:51.695Z,96301.66
2023-03-26T00:08:58.075Z,96309.28
2023-03-26T00:11:03.000Z,96322.47
2023-03-26T00:13:08.576Z,96321.16
2023-03-26T00:15:14.224Z,96320.13
2023-03-26T00:17:22.280Z,96318.03
2023-03-26T00:19:28.129Z,96311.19
2023-03-26T00:21:34.396Z,96310.91
2023-03-26T00:23:39.768Z,96315.41
2023-03-26T00:25:46.468Z,96308.03
2023-03-26T00:27:52.831Z,96301.97
2023-03-26T00:29:57.880Z,96306.97
2023-03-26T00:32:04.060Z,96304.63
2023-03-26T00:34:11.728Z,96305.94
2023-03-26T00:36:20.232Z,96298.06
2023-03-26T00:38:26.277Z,96299.13
2023-03-26T00:40:32.304Z,96302.25
2023-03-26T00:42:37.758Z,96301.78
2023-03-26T00:44:42.470Z,96299.13
2023-03-26T00:46:47.329Z,96299.91
2023-03-26T00:48:52.223Z,96304.13
2023-03-26T00:51:00.298Z,96298.06
2023-03-26T00:53:05.464Z,96292.28
2023-03-26T00:55:11.265Z,96298.63
2023-03-26T00:57:28.971Z,96293.34
2023-03-26T00:59:40.034Z,96292.84
2023-03-26T01:01:44.982Z,96294.69
2023-03-26T01:04:08.354Z,96292.03
2023-03-26T01:06:28.021Z,96291.34
2023-03-26T01:08:34.998Z,96293.97
2023-03-26T01:10:41.101Z,96290.25
2023-03-26T01:12:46.181Z,96293.97
2023-03-26T01:14:52.261Z,96292.09
2023-03-26T01:16:59.093Z,96282.13
2023-03-26T01:19:04.074Z,96285.53
2023-03-26T01:21:09.905Z,96286.88
2023-03-26T01:23:21.875Z,96287.16
2023-03-26T01:25:35.623Z,96291.94
2023-03-26T01:27:43.459Z,96281.19
2023-03-26T01:29:54.330Z,96280.38
2023-03-26T01:32:09.622Z,96292.50
2023-03-26T01:34:23.766Z,96277.75
2023-03-26T01:36:35.358Z,96276.97
2023-03-26T01:38:48.436Z,96282.22
2023-03-26T01:41:01.253Z,96280.44
2023-03-26T01:43:14.294Z,96276.22
2023-03-26T01:45:24.117Z,96276.22
2023-03-26T01:47:29.902Z,96277.81
2023-03-26T01:49:35.350Z,96276.72
2023-03-26T01:51:40.326Z,96276.22
2023-03-26T01:53:47.860Z,96284.41
2023-03-26T01:56:04.567Z,96283.38
2023-03-26T01:58:17.172Z,96278.41
2023-03-26T02:00:27.680Z,96277.06
2023-03-26T02:02:41.697Z,96268.88
2023-03-26T02:04:54.131Z,96277.81
2023-03-26T02:07:06.357Z,96269.91
2023-03-26T02:09:15.646Z,96268.81
2023-03-26T02:11:23.382Z,96257.72
2023-03-26T02:13:29.209Z,96263.00
2023-03-26T02:15:34.047Z,96253.53
2023-03-26T02:17:40.605Z,96257.50
2023-03-26T02:19:45.832Z,96253.56
2023-03-26T02:21:52.346Z,96253.34
2023-03-26T02:24:03.319Z,96257.59
2023-03-26T02:26:12.352Z,96253.19
2023-03-26T02:28:32.569Z,96257.91
2023-03-26T02:30:37.994Z,96259.28
2023-03-26T02:32:44.059Z,96253.00
2023-03-26T02:34:51.537Z,96254.88
2023-03-26T02:36:57.380Z,96252.00
2023-03-26T02:39:03.223Z,96254.13
2023-03-26T02:41:11.553Z,96256.53
2023-03-26T02:43:32.644Z,96253.38
2023-03-26T02:45:38.029Z,96240.78
2023-03-26T02:48:03.824Z,96231.31
2023-03-26T02:50:24.325Z,96231.84
2023-03-26T02:52:57.980Z,96231.38
2023-03-26T02:55:04.559Z,96229.78
2023-03-26T02:57:10.569Z,96228.72
2023-03-26T02:59:24.207Z,96221.88
2023-03-26T03:01:48.966Z,96225.56
2023-03-26T03:03:56.485Z,96222.72
2023-03-26T03:06:14.185Z,96215.38
2023-03-26T03:08:26.459Z,96219.63
2023-03-26T03:10:39.950Z,96219.41
2023-03-26T03:12:55.530Z,96225.97
2023-03-26T03:15:03.638Z,96219.69
2023-03-26T03:17:08.488Z,96215.00
2023-03-26T03:19:13.932Z,96217.91
2023-03-26T03:21:18.991Z,96217.34
2023-03-26T03:23:24.328Z,96218.41
2023-03-26T03:25:34.564Z,96210.53
2023-03-26T03:27:39.960Z,96209.19
2023-03-26T03:29:49.732Z,96208.91
2023-03-26T03:32:27.938Z,96200.78
2023-03-26T03:34:38.875Z,96203.91
2023-03-26T03:36:48.901Z,96202.84
2023-03-26T03:39:14.017Z,96195.53
2023-03-26T03:41:19.382Z,96193.94
2023-03-26T03:43:25.299Z,96185.00
2023-03-26T03:45:41.368Z,96179.75
2023-03-26T03:47:56.720Z,96168.69
2023-03-26T03:50:12.048Z,96170.75
2023-03-26T03:52:25.850Z,96164.16
2023-03-26T03:54:31.192Z,96171.00
2023-03-26T03:56:49.282Z,96169.72
2023-03-26T03:59:12.924Z,96163.91
2023-03-26T04:01:18.879Z,96153.09
2023-03-26T04:03:39.075Z,96167.03
2023-03-26T04:05:50.137Z,96164.38
2023-03-26T04:07:55.616Z,96165.47
2023-03-26T04:10:07.060Z,96163.91
2023-03-26T04:12:38.254Z,96161.81
2023-03-26T04:14:44.488Z,96159.19
2023-03-26T04:16:55.254Z,96166.31
2023-03-26T04:19:04.636Z,96161.03
2023-03-26T04:21:12.825Z,96160.53
2023-03-26T04:23:19.560Z,96159.53
2023-03-26T04:25:30.564Z,96154.81
2023-03-26T04:27:44.503Z,96162.19
2023-03-26T04:29:58.397Z,96158.28
2023-03-26T04:32:07.216Z,96157.47
2023-03-26T04:34:24.489Z,96158.53
2023-03-26T04:36:49.681Z,96155.88
2023-03-26T04:38:58.564Z,96152.22
2023-03-26T04:41:26.605Z,96150.88
2023-03-26T04:43:42.617Z,96149.84
2023-03-26T04:45:58.714Z,96153.72
2023-03-26T04:48:07.595Z,96145.31
2023-03-26T04:50:15.794Z,96144.22
2023-03-26T04:52:21.585Z,96146.59
2023-03-26T04:54:49.736Z,96139.78
2023-03-26T04:57:01.011Z,96141.31
2023-03-26T04:59:30.210Z,96149.00
2023-03-26T05:01:38.100Z,96151.66
2023-03-26T05:03:46.088Z,96143.00
2023-03-26T05:05:55.826Z,96144.56
2023-03-26T05:08:00.873Z,96146.66
2023-03-26T05:10:06.598Z,96133.22
2023-03-26T05:12:18.446Z,96135.56
2023-03-26T05:14:36.372Z,96145.03
2023-03-26T05:16:44.999Z,96136.06
2023-03-26T05:18:50.049Z,96126.34
2023-03-26T05:20:58.015Z,96118.47
2023-03-26T05:23:04.616Z,96110.81
2023-03-26T05:25:13.473Z,96107.63
2023-03-26T05:27:20.375Z,96104.44
2023-03-26T05:29:25.280Z,96111.78
2023-03-26T05:31:33.447Z,96107.81
2023-03-26T05:33:40.479Z,96105.69
2023-03-26T05:35:49.644Z,96104.06
2023-03-26T05:37:57.289Z,96098.25
2023-03-26T05:40:04.410Z,96096.63
2023-03-26T05:42:23.623Z,96102.41
2023-03-26T05:44:42.741Z,96101.84
2023-03-26T05:46:56.351Z,96092.38
2023-03-26T05:49:04.614Z,96091.81
2023-03-26T05:51:12.848Z,96086.78
2023-03-26T05:53:24.828Z,96079.66
2023-03-26T05:56:04.975Z,96073.06
2023-03-26T05:58:34.638Z,96070.63
2023-03-26T06:01:02.796Z,96067.25
2023-03-26T06:03:19.193Z,96056.91
2023-03-26T06:05:45.155Z,96049.53
2023-03-26T06:08:16.115Z,96041.84
2023-03-26T06:10:30.168Z,96035.25
2023-03-26T06:12:35.129Z,96038.09
2023-03-26T06:14:42.931Z,96032.28
2023-03-26T06:16:56.292Z,96029.84
2023-03-26T06:19:01.562Z,96036.69
2023-03-26T06:21:28.394Z,96031.13
2023-03-26T06:23:38.420Z,96034.25
2023-03-26T06:25:50.889Z,96024.81
2023-03-26T06:28:19.356Z,96027.38
2023-03-26T06:30:54.329Z,96026.31
2023-03-26T06:33:25.462Z,96024.16
2023-03-26T06:35:31.055Z,96011.22
2023-03-26T06:37:36.542Z,96008.78
2023-03-26T06:39:41.881Z,96005.28
2023-03-26T06:41:56.248Z,96004.47
2023-03-26T06:44:15.765Z,95999.38
2023-03-26T06:46:52.836Z,96009.34
2023-03-26T06:49:21.116Z,95995.91
2023-03-26T06:51:49.244Z,95999.31
2023-03-26T06:53:57.434Z,95996.13
2023-03-26T06:56:20.935Z,95995.31
2023-03-26T06:58:48.957Z,95990.03
2023-03-26T07:01:12.178Z,95985.28
2023-03-26T07:03:36.669Z,95978.94
2023-03-26T07:06:20.041Z,95980.78
2023-03-26T07:08:43.716Z,95972.88
2023-03-26T07:11:16.858Z,95973.13
2023-03-26T07:13:41.997Z,95984.63
2023-03-26T07:16:08.871Z,95977.00
2023-03-26T07:18:32.545Z,95974.06
2023-03-26T07:20:39.915Z,95975.38
2023-03-26T07:22:45.517Z,95971.38
2023-03-26T07:24:54.411Z,95963.19
2023-03-26T07:27:40.866Z,95950.78
2023-03-26T07:29:51.275Z,95947.28
2023-03-26T07:32:28.317Z,95950.41
2023-03-26T07:34:58.702Z,95942.22
2023-03-26T07:37:17.759Z,95950.59
2023-03-26T07:39:49.626Z,95947.97
2023-03-26T07:42:26.114Z,95937.94
2023-03-26T07:45:20.136Z,95927.88
2023-03-26T07:48:02.362Z,95919.66
2023-03-26T07:50:26.096Z,95911.69
2023-03-26T07:52:46.784Z,95914.50
2023-03-26T07:55:09.395Z,95910.50
2023-03-26T07:57:44.535Z,95907.09
2023-03-26T08:00:16.362Z,95900.44
2023-03-26T08:02:38.032Z,95899.88
2023-03-26T08:05:26.447Z,95896.97
2023-03-26T08:08:06.023Z,95892.16
2023-03-26T08:10:20.325Z,95892.38
2023-03-26T08:12:45.828Z,95890.72
2023-03-26T08:14:56.565Z,95879.88
2023-03-26T08:17:07.794Z,95871.50
2023-03-26T08:19:26.659Z,95874.59
2023-03-26T08:21:41.094Z,95863.56
2023-03-26T08:23:57.826Z,95860.66
2023-03-26T08:26:06.597Z,95861.13
2023-03-26T08:28:27.052Z,95847.94
2023-03-26T08:30:33.143Z,95836.03
2023-03-26T08:32:38.773Z,95832.31
2023-03-26T08:34:44.058Z,95825.97
2023-03-26T08:36:53.185Z,95821.75
2023-03-26T08:38:59.667Z,95827.22
2023-03-26T08:41:42.281Z,95825.69
2023-03-26T08:44:14.324Z,95824.09
2023-03-26T08:46:42.241Z,95816.97
2023-03-26T08:49:27.838Z,95806.41
2023-03-26T08:52:00.839Z,95805.34
2023-03-26T08:54:27.604Z,95806.13
2023-03-26T08:56:39.136Z,95798.50
2023-03-26T08:59:14.226Z,95806.13
2023-03-26T09:01:58.452Z,95800.84
2023-03-26T09:04:30.562Z,95801.66
2023-03-26T09:06:56.911Z,95794.50
2023-03-26T09:09:43.332Z,95793.44
2023-03-26T09:12:28.380Z,95792.34
2023-03-26T09:15:13.981Z,95779.94
2023-03-26T09:17:52.898Z,95778.84
2023-03-26T09:20:29.753Z,95773.31
2023-03-26T09:23:09.689Z,95760.59
2023-03-26T09:25:47.256Z,95761.25
2023-03-26T09:28:25.022Z,95773.38
2023-03-26T09:30:42.953Z,95771.81
2023-03-26T09:33:23.846Z,95765.16
2023-03-26T09:35:48.612Z,95765.63
2023-03-26T09:38:04.182Z,95765.34
2023-03-26T09:40:19.242Z,95771.69
2023-03-26T09:42:34.920Z,95782.84
2023-03-26T09:45:19.273Z,95794.41
2023-03-26T09:47:46.336Z,95781.69
2023-03-26T09:49:56.774Z,95783.41
2023-03-26T09:52:18.856Z,95778.50
2023-03-26T09:54:48.676Z,95775.66
2023-03-26T09:57:04.725Z,95773.88
2023-03-26T09:59:20.037Z,95762.97
2023-03-26T10:01:37.866Z,95762.88
2023-03-26T10:03:57.224Z,95770.19
2023-03-26T10:06:12.100Z,95763.84
2023-03-26T10:08:44.628Z,95759.63
2023-03-26T10:10:57.905Z,95766.78
2023-03-26T10:13:14.843Z,95762.56
2023-03-26T10:15:33.072Z,95758.38
2023-03-26T10:17:56.249Z,95756.81
2023-03-26T10:20:18.707Z,95757.59
2023-03-26T10:22:42.411Z,95750.47
2023-03-26T10:25:25.132Z,95747.81
2023-03-26T10:27:46.797Z,95746.56
2023-03-26T10:30:29.413Z,95742.66
2023-03-26T10:32:45.975Z,95736.88
2023-03-26T10:35:09.767Z,95733.00
2023-03-26T10:37:23.534Z,95735.16
2023-03-26T10:39:52.366Z,95729.09
2023-03-26T10:42:07.215Z,95727.84
2023-03-26T10:44:33.967Z,95717.59
2023-03-26T10:47:11.436Z,95728.13
2023-03-26T10:49:49.253Z,95732.63
2023-03-26T10:52:01.221Z,95734.00
2023-03-26T10:54:13.857Z,95729.00
2023-03-26T10:56:25.298Z,95725.78
2023-03-26T10:58:49.597Z,95727.84
2023-03-26T11:01:02.934Z,95715.41
2023-03-26T11:03:46.795Z,95723.53
2023-03-26T11:05:59.058Z,95718.66
2023-03-26T11:08:11.036Z,95713.53
2023-03-26T11:10:21.522Z,95708.47
2023-03-26T11:12:36.374Z,95708.78
2023-03-26T11:14:49.261Z,95704.09
2023-03-26T11:17:04.178Z,95709.47
2023-03-26T11:19:17.776Z,95705.56
2023-03-26T11:21:29.327Z,95701.97
2023-03-26T11:23:42.681Z,95692.50
2023-03-26T11:26:10.575Z,95692.50
2023-03-26T11:28:31.411Z,95702.84
2023-03-26T11:30:44.609Z,95696.78
2023-03-26T11:32:55.213Z,95705.00
2023-03-26T11:35:05.708Z,95703.94
2023-03-26T11:37:18.337Z,95705.47
2023-03-26T11:39:29.864Z,95709.50
2023-03-26T11:41:35.875Z,95707.34
2023-03-26T11:44:05.647Z,95709.69
2023-03-26T11:46:16.925Z,95714.94
2023-03-26T11:48:25.884Z,95708.31
2023-03-26T11:50:35.959Z,95702.25
2023-03-26T11:52:41.300Z,95697.47
2023-03-26T11:54:50.938Z,95699.50
2023-03-26T11:57:05.595Z,95699.22
2023-03-26T11:59:15.584Z,95698.16
2023-03-26T12:01:30.189Z,95683.31
2023-03-26T12:03:35.078Z,95666.88
2023-03-26T12:05:51.192Z,95668.13
2023-03-26T12:07:58.061Z,95681.81
2023-03-26T12:10:18.126Z,95677.31
2023-03-26T12:12:27.644Z,95681.50
2023-03-26T12:14:36.074Z,95677.81
2023-03-26T12:17:00.422Z,95666.16
2023-03-26T12:21:27.232Z,95682.38
2023-03-26T12:23:42.027Z,95654.16
2023-03-26T12:26:08.802Z,95663.16
2023-03-26T12:28:23.097Z,95660.03
2023-03-26T12:30:31.200Z,95668.13
2023-03-26T12:32:46.816Z,95656.22
2023-03-26T12:34:52.213Z,95658.13
2023-03-26T12:37:00.244Z,95659.94
2023-03-26T12:39:16.317Z,95653.50
2023-03-26T12:43:40.482Z,95647.53
2023-03-26T12:44:56.160Z,95635.22
2023-03-26T12:47:57.347Z,95623.91
2023-03-26T12:49:15.947Z,95627.38
2023-03-26T12:51:31.818Z,95618.53
2023-03-26T12:53:51.906Z,95602.53
2023-03-26T12:56:04.131Z,95603.97
2023-03-26T12:58:23.288Z,95601.00
2023-03-26T13:00:40.176Z,95599.91
2023-03-26T13:03:06.965Z,95595.72
2023-03-26T13:05:27.319Z,95597.75
2023-03-26T13:07:45.981Z,95604.28
2023-03-26T13:10:22.564Z,95606.13
2023-03-26T13:12:38.511Z,95592.78
2023-03-26T13:15:13.076Z,95585.94
2023-03-26T13:17:26.722Z,95580.66
2023-03-26T13:19:39.410Z,95581.41
2023-03-26T13:21:59.658Z,95588.25
2023-03-26T13:24:15.516Z,95593.09
2023-03-26T13:26:33.670Z,95579.56
2023-03-26T13:28:48.525Z,95621.19
2023-03-26T13:31:07.430Z,95666.69
2023-03-26T13:33:30.112Z,95653.13
2023-03-26T13:35:39.636Z,95637.50
2023-03-26T13:37:54.620Z,95636.16
2023-03-26T13:40:07.892Z,95637.63
2023-03-26T13:42:37.902Z,95606.16
2023-03-26T13:45:05.306Z,95597.59
2023-03-26T13:47:19.033Z,95592.31
2023-03-26T13:49:37.417Z,95579.13
2023-03-26T13:51:48.209Z,95582.06
2023-03-26T13:53:58.891Z,95587.44
2023-03-26T13:56:04.004Z,95582.31
2023-03-26T13:58:16.737Z,95576.81
2023-03-26T14:00:27.326Z,95576.34
2023-03-26T14:02:40.767Z,95570.88
2023-03-26T14:04:49.263Z,95584.56
2023-03-26T14:07:00.636Z,95590.91
2023-03-26T14:09:12.617Z,95577.72
2023-03-26T14:11:22.686Z,95571.38
2023-03-26T14:13:32.782Z,95572.94
2023-03-26T14:15:45.144Z,95568.91
2023-03-26T14:17:58.235Z,95569.19
2023-03-26T14:20:42.064Z,95573.72
2023-03-26T14:23:01.455Z,95580.84
2023-03-26T14:25:25.168Z,95570.56
2023-03-26T14:27:44.531Z,95577.41
2023-03-26T14:30:02.761Z,95559.75
2023-03-26T14:32:29.916Z,95563.94
2023-03-26T14:35:03.978Z,95565.03
2023-03-26T14:37:28.081Z,95550.88
2023-03-26T14:39:52.120Z,95538.78
2023-03-26T14:42:04.115Z,95549.91
2023-03-26T14:44:28.972Z,95541.34
2023-03-26T14:46:50.254Z,95525.19
2023-03-26T14:49:30.801Z,95512.28
2023-03-26T14:52:00.859Z,95510.44
2023-03-26T14:54:12.286Z,95499.59
2023-03-26T14:56:45.298Z,95505.97
2023-03-26T14:59:18.014Z,95484.38
2023-03-26T15:01:28.555Z,95502.06
2023-03-26T15:04:18.415Z,95498.16
2023-03-26T15:07:18.981Z,95506.00
2023-03-26T15:09:59.518Z,95492.47
2023-03-26T15:12:16.341Z,95491.50
2023-03-26T15:14:47.262Z,95492.41
2023-03-26T15:17:40.968Z,95495.34
2023-03-26T15:20:32.004Z,95501.22
2023-03-26T15:23:12.990Z,95499.16
2023-03-26T15:25:50.583Z,95503.97
2023-03-26T15:28:34.053Z,95506.41
2023-03-26T15:31:14.196Z,95493.22
2023-03-26T15:33:53.137Z,95497.72
2023-03-26T15:36:26.823Z,95492.78
2023-03-26T15:38:57.616Z,95484.66
2023-03-26T15:41:14.079Z,95486.22
2023-03-26T15:43:23.030Z,95484.88
2023-03-26T15:45:38.482Z,95482.22
2023-03-26T15:47:57.010Z,95487.19
2023-03-26T15:50:12.529Z,95485.03
2023-03-26T15:52:28.046Z,95485.03
2023-03-26T15:54:39.629Z,95485.34
2023-03-26T15:57:10.804Z,95493.84
2023-03-26T15:59:32.831Z,95489.94
2023-03-26T16:01:51.878Z,95491.03
2023-03-26T16:04:09.541Z,95494.72
2023-03-26T16:06:34.269Z,95496.41
2023-03-26T16:08:53.226Z,95499.31
2023-03-26T16:10:59.704Z,95489.25
2023-03-26T16:13:30.368Z,95493.28
2023-03-26T16:15:38.784Z,95492.19
2023-03-26T16:18:22.499Z,95485.56
2023-03-26T16:20:32.924Z,95477.19
2023-03-26T16:22:48.492Z,95489.84
2023-03-26T16:25:27.484Z,95494.34
2023-03-26T16:27:37.091Z,95494.34
2023-03-26T16:30:12.354Z,95488.13
2023-03-26T16:32:29.004Z,95490.59
2023-03-26T16:34:53.083Z,95482.19
2023-03-26T16:37:01.572Z,95479.09
2023-03-26T16:39:22.757Z,95467.59
2023-03-26T16:41:30.722Z,95464.34
2023-03-26T16:43:58.362Z,95460.66
2023-03-26T16:46:11.639Z,95460.81
2023-03-26T16:48:28.273Z,95461.63
2023-03-26T16:50:45.065Z,95462.38
2023-03-26T16:52:58.934Z,95465.03
2023-03-26T16:55:15.576Z,95462.69
2023-03-26T16:57:28.987Z,95460.34
2023-03-26T17:00:07.733Z,95463.28
2023-03-26T17:02:24.930Z,95453.81
2023-03-26T17:04:37.119Z,95457.53
2023-03-26T17:07:04.297Z,95449.63
2023-03-26T17:09:24.845Z,95444.34
2023-03-26T17:11:40.273Z,95444.34
2023-03-26T17:13:51.775Z,95442.81
2023-03-26T17:16:07.110Z,95441.25
2023-03-26T17:18:32.982Z,95443.13
2023-03-26T17:20:46.861Z,95440.19
2023-03-26T17:22:59.722Z,95446.22
2023-03-26T17:25:24.160Z,95441.72
2023-03-26T17:27:41.368Z,95435.41
2023-03-26T17:30:04.260Z,95434.78
2023-03-26T17:32:12.517Z,95424.16
2023-03-26T17:34:36.918Z,95434.09
2023-03-26T17:36:48.356Z,95430.66
2023-03-26T17:39:05.058Z,95424.34
2023-03-26T17:41:12.404Z,95426.19
2023-03-26T17:43:47.902Z,95422.75
2023-03-26T17:46:02.904Z,95428.53
2023-03-26T17:48:18.671Z,95434.88
2023-03-26T17:50:30.092Z,95435.47
2023-03-26T17:52:49.261Z,95437.13
2023-03-26T17:54:58.512Z,95443.97
2023-03-26T17:57:08.001Z,95455.25
2023-03-26T17:59:23.590Z,95454.50
2023-03-26T18:01:35.193Z,95463.97
2023-03-26T18:03:46.523Z,95477.28
2023-03-26T18:05:55.856Z,95468.31
2023-03-26T18:08:33.788Z,95483.31
2023-03-26T18:11:08.074Z,95489.41
2023-03-26T18:13:30.718Z,95497.16
2023-03-26T18:15:52.148Z,95495.03
2023-03-26T18:18:04.701Z,95475.50
2023-03-26T18:20:21.396Z,95483.91
2023-03-26T18:22:29.844Z,95480.50
2023-03-26T18:24:42.835Z,95495.50
2023-03-26T18:26:51.935Z,95502.34
2023-03-26T18:29:11.922Z,95496.16
2023-03-26T18:31:21.419Z,95497.44
2023-03-26T18:33:28.783Z,95497.13
2023-03-26T18:35:43.481Z,95504.28
2023-03-26T18:37:49.757Z,95499.78
2023-03-26T18:40:11.388Z,95489.22
2023-03-26T18:42:25.021Z,95500.38
2023-03-26T18:44:31.270Z,95492.47
2023-03-26T18:46:36.853Z,95499.09
2023-03-26T18:48:42.433Z,95485.47
2023-03-26T18:50:48.174Z,95478.94
2023-03-26T18:52:53.185Z,95485.09
2023-03-26T18:54:59.907Z,95485.69
2023-03-26T18:57:15.669Z,95489.03
2023-03-26T18:59:28.475Z,95469.31
2023-03-26T19:01:36.749Z,95464.34
2023-03-26T19:03:45.246Z,95490.81
2023-03-26T19:05:51.353Z,95468.78
2023-03-26T19:07:56.188Z,95476.75
2023-03-26T19:10:03.317Z,95475.03
2023-03-26T19:12:11.535Z,95492.19
2023-03-26T19:14:23.196Z,95473.56
2023-03-26T19:16:34.024Z,95485.75
2023-03-26T19:18:41.366Z,95479.22
2023-03-26T19:20:54.134Z,95483.22
2023-03-26T19:23:00.616Z,95471.63
2023-03-26T19:25:06.834Z,95478.25
2023-03-26T19:27:14.321Z,95489.56
2023-03-26T19:29:26.909Z,95488.78
2023-03-26T19:31:37.041Z,95489.38
2023-03-26T19:33:44.891Z,95481.00
2023-03-26T19:35:55.459Z,95498.34
2023-03-26T19:38:00.612Z,95496.50
2023-03-26T19:40:16.953Z,95488.38
2023-03-26T19:42:26.807Z,95498.66
2023-03-26T19:44:34.825Z,95499.50
2023-03-26T19:46:52.968Z,95500.09
2023-03-26T19:49:00.767Z,95496.19
2023-03-26T19:51:09.442Z,95499.91
2023-03-26T19:53:19.173Z,95499.41
2023-03-26T19:55:25.549Z,95502.53
2023-03-26T19:57:36.523Z,95504.66
2023-03-26T19:59:43.953Z,95499.13
2023-03-26T20:01:56.094Z,95506.53
2023-03-26T20:04:04.260Z,95503.13
2023-03-26T20:06:10.134Z,95500.22
2023-03-26T20:08:17.987Z,95501.75
2023-03-26T20:10:23.447Z,95509.06
2023-03-26T20:12:28.525Z,95509.06
2023-03-26T20:14:34.076Z,95516.66
2023-03-26T20:16:43.810Z,95524.06
2023-03-26T20:18:50.997Z,95530.13
2023-03-26T20:20:56.683Z,95528.44
2023-03-26T20:23:02.504Z,95520.56
2023-03-26T20:27:23.831Z,95525.72
2023-03-26T20:29:28.832Z,95528.53
2023-03-26T20:31:33.997Z,95522.97
2023-03-26T20:33:42.461Z,95523.78
2023-03-26T20:35:48.150Z,95519.00
2023-03-26T20:37:53.606Z,95521.16
2023-03-26T20:39:58.632Z,95520.34
2023-03-26T20:42:03.429Z,95526.13
2023-03-26T20:44:15.831Z,95510.91
2023-03-26T20:46:23.281Z,95515.09
2023-03-26T20:48:36.452Z,95515.88
2023-03-26T20:50:50.612Z,95519.75
2023-03-26T20:52:56.025Z,95513.72
2023-03-26T20:55:01.687Z,95514.03
2023-03-26T20:57:07.005Z,95516.66
2023-03-26T20:59:14.318Z,95512.16
2023-03-26T21:01:20.823Z,95509.53
2023-03-26T21:05:48.705Z,95512.56
2023-03-26T21:07:54.899Z,95510.53
2023-03-26T21:10:02.166Z,95518.72
2023-03-26T21:12:09.946Z,95524.84
2023-03-26T21:14:22.656Z,95527.28
2023-03-26T21:16:28.456Z,95530.78
2023-03-26T21:18:34.322Z,95525.31
2023-03-26T21:20:40.345Z,95524.25
2023-03-26T21:22:56.547Z,95522.69
2023-03-26T21:25:23.454Z,95525.56
2023-03-26T21:27:36.271Z,95529.50
2023-03-26T21:29:41.993Z,95528.75
2023-03-26T21:31:47.547Z,95530.06
2023-03-26T21:33:55.402Z,95528.03
2023-03-26T21:36:04.635Z,95529.09
2023-03-26T21:38:14.392Z,95523.34
2023-03-26T21:40:21.218Z,95528.59
2023-03-26T21:42:29.482Z,95531.81
2023-03-26T21:44:35.231Z,95536.88
2023-03-26T21:46:43.629Z,95527.69
2023-03-26T21:48:49.285Z,95524.31
2023-03-26T21:50:54.889Z,95522.44
2023-03-26T21:53:00.824Z,95522.25
2023-03-26T21:55:09.823Z,95527.81
2023-03-26T21:57:36.191Z,95513.88
2023-03-26T21:59:51.946Z,95512.31
2023-03-26T22:02:06.272Z,95517.88
2023-03-26T22:04:20.311Z,95517.06
2023-03-26T22:06:31.623Z,95512.31
2023-03-26T22:08:41.600Z,95511.75
2023-03-26T22:10:49.430Z,95521.38
2023-03-26T22:12:54.693Z,95522.66
2023-03-26T22:15:01.880Z,95522.06
2023-03-26T22:17:06.733Z,95519.63
2023-03-26T22:19:12.840Z,95523.81
2023-03-26T22:21:17.752Z,95531.41
2023-03-26T22:23:23.088Z,95526.16
2023-03-26T22:25:28.167Z,95534.56
2023-03-26T22:27:43.826Z,95535.31
2023-03-26T22:29:49.759Z,95529.00
2023-03-26T22:31:54.624Z,95539.81
2023-03-26T22:33:59.521Z,95541.16
2023-03-26T22:36:04.828Z,95540.97
2023-03-26T22:38:28.075Z,95541.84
2023-03-26T22:40:33.214Z,95546.31
2023-03-26T22:42:40.712Z,95536.88
2023-03-26T22:44:45.986Z,95539.19
2023-03-26T22:46:52.640Z,95543.41
2023-03-26T22:48:57.949Z,95537.84
2023-03-26T22:51:05.247Z,95534.34
2023-03-26T22:53:10.550Z,95538.25
2023-03-26T22:55:16.154Z,95545.56
2023-03-26T22:57:33.981Z,95539.81
2023-03-26T22:59:41.881Z,95532.78
2023-03-26T23:01:47.209Z,95534.63
2023-03-26T23:03:52.344Z,95535.41
2023-03-26T23:05:58.920Z,95538.84
2023-03-26T23:08:03.874Z,95538.53
2023-03-26T23:10:11.335Z,95535.31
2023-03-26T23:12:16.157Z,95537.19
2023-03-26T23:14:21.996Z,95535.03
2023-03-26T23:16:30.058Z,95536.91
2023-03-26T23:18:35.054Z,95533.47
2023-03-26T23:20:40.199Z,95531.94
2023-03-26T23:22:46.021Z,95533.47
2023-03-26T23:24:51.611Z,95530.84
2023-03-26T23:26:56.747Z,95530.34
2023-03-26T23:29:01.894Z,95525.38
2023-03-26T23:31:09.612Z,95520.13
2023-03-26T23:33:17.210Z,95524.63
2023-03-26T23:35:22.297Z,95529.09
2023-03-26T23:37:29.685Z,95530.94
2023-03-26T23:39:34.895Z,95530.16
2023-03-26T23:41:41.201Z,95527.50
2023-03-26T23:43:53.954Z,95521.31
2023-03-26T23:46:01.490Z,95526.56
2023-03-26T23:48:07.214Z,95519.44
2023-03-26T23:50:15.350Z,95514.19
2023-03-26T23:52:20.277Z,95514.94
2023-03-26T23:54:25.797Z,95521.78
2023-03-26T23:56:32.138Z,95516.81
2023-03-26T23:58:37.748Z,95516.81
